Time;durP1;ratioP1;P1;durP2;ratioP2;P2;SDS_P1;SDS_P2;PMS_P1;PMS_P2;Temp;Humidity;BMP_temperature;BMP_pressure;BME280_temperature;BME280_humidity;BME280_pressure;Samples;Min_cycle;Max_cycle;Signal;HPM_P1;HPM_P2
2024/03/30 00:01:39;;;;;;;10.32;2.08;;;15.20;89.80;;;;;;5102011;28;20070;-65
2024/03/30 00:04:05;;;;;;;14.45;2.67;;;15.20;90.00;;;;;;5102761;28;20023;-65
2024/03/30 00:06:30;;;;;;;11.68;2.75;;;15.20;89.80;;;;;;5110124;28;20024;-65
2024/03/30 00:08:56;;;;;;;11.75;1.85;;;15.20;89.80;;;;;;5101881;28;20223;-65
2024/03/30 00:11:22;;;;;;;15.30;3.25;;;15.20;89.50;;;;;;5101982;28;20031;-69
2024/03/30 00:13:47;;;;;;;17.27;2.67;;;15.20;89.40;;;;;;5067288;28;20032;-65
2024/03/30 00:16:14;;;;;;;13.80;2.30;;;15.10;89.80;;;;;;5070712;28;20034;-65
2024/03/30 00:18:41;;;;;;;14.85;2.08;;;15.30;89.20;;;;;;5098987;28;20028;-65
2024/03/30 00:21:07;;;;;;;10.35;2.15;;;;;;;;;;5102768;28;20035;-65
2024/03/30 00:23:33;;;;;;;16.77;2.70;;;15.40;88.80;;;;;;5102192;28;20089;-65
2024/03/30 00:26:00;;;;;;;13.70;2.42;;;15.40;88.80;;;;;;5105959;28;20043;-66
2024/03/30 00:28:26;;;;;;;13.32;2.85;;;15.40;88.20;;;;;;5083606;28;20030;-66
2024/03/30 00:30:52;;;;;;;18.63;2.85;;;15.00;81.80;;;;;;5101430;28;20435;-64
2024/03/30 00:33:18;;;;;;;13.63;2.65;;;15.30;88.40;;;;;;5102121;28;20020;-64
2024/03/30 00:35:45;;;;;;;13.40;2.00;;;15.20;72.80;;;;;;5101494;28;20043;-65
2024/03/30 00:38:13;;;;;;;11.57;2.20;;;15.40;76.30;;;;;;5102080;28;20020;-64
2024/03/30 00:40:39;;;;;;;14.43;2.20;;;15.20;73.20;;;;;;5101237;28;20047;-65
2024/03/30 00:43:06;;;;;;;9.75;2.00;;;15.20;84.60;;;;;;5101220;28;20043;-65
2024/03/30 00:45:32;;;;;;;13.68;1.95;;;15.30;88.00;;;;;;5101345;28;20117;-64
2024/03/30 00:47:58;;;;;;;9.75;1.77;;;;;;;;;;5102915;28;20339;-65
2024/03/30 00:50:23;;;;;;;10.23;1.77;;;15.10;72.30;;;;;;5101235;28;20054;-64
2024/03/30 00:52:50;;;;;;;10.18;2.13;;;;;;;;;;5101061;28;20625;-65
2024/03/30 00:55:15;;;;;;;10.55;2.58;;;15.50;87.80;;;;;;5101811;28;20031;-65
2024/03/30 00:57:44;;;;;;;14.27;1.92;;;15.40;87.80;;;;;;5101054;28;20478;-65
2024/03/30 01:00:13;;;;;;;13.43;2.33;;;15.20;72.00;;;;;;5101155;28;20331;-65
2024/03/30 01:02:39;;;;;;;9.68;2.17;;;12.40;70.40;;;;;;5101136;28;20078;-65
2024/03/30 01:05:06;;;;;;;22.15;4.07;;;15.20;72.60;;;;;;5101233;28;20028;-65
2024/03/30 01:07:31;;;;;;;8.27;2.38;;;15.20;83.60;;;;;;5102434;28;20040;-65
2024/03/30 01:09:57;;;;;;;20.35;3.25;;;15.20;87.30;;;;;;5100783;28;20035;-67
2024/03/30 01:12:25;;;;;;;13.27;2.40;;;15.20;72.00;;;;;;5101698;28;20092;-67
2024/03/30 01:14:51;;;;;;;13.75;2.08;;;;;;;;;;5104040;28;20043;-66
2024/03/30 01:17:17;;;;;;;9.75;1.90;;;15.20;89.30;;;;;;5100693;28;20019;-66
2024/03/30 01:19:44;;;;;;;16.88;3.17;;;15.10;90.00;;;;;;5108041;28;20331;-66
2024/03/30 01:22:11;;;;;;;13.65;2.45;;;15.10;89.80;;;;;;5102870;28;20024;-66
2024/03/30 01:24:37;;;;;;;16.13;2.78;;;15.00;90.10;;;;;;5100534;28;20038;-66
2024/03/30 01:27:08;;;;;;;13.55;2.13;;;14.80;90.10;;;;;;5100366;28;20028;-66
2024/03/30 01:29:35;;;;;;;14.68;2.20;;;15.10;90.50;;;;;;5101270;28;20231;-66
2024/03/30 01:32:01;;;;;;;18.83;2.63;;;14.90;87.20;;;;;;5100834;28;20108;-66
2024/03/30 01:34:28;;;;;;;17.88;3.80;;;15.00;90.20;;;;;;5100325;28;20020;-66
2024/03/30 01:36:53;;;;;;;15.00;2.63;;;14.90;90.10;;;;;;5100109;28;20047;-66
2024/03/30 01:39:20;;;;;;;13.18;2.45;;;15.10;90.10;;;;;;5100287;28;20321;-66
2024/03/30 01:41:45;;;;;;;15.15;2.15;;;14.90;90.70;;;;;;5100013;28;20031;-66
2024/03/30 01:44:12;;;;;;;14.50;2.22;;;14.90;90.40;;;;;;5099742;28;20375;-67
2024/03/30 01:46:39;;;;;;;11.85;2.05;;;14.90;90.10;;;;;;5100726;28;20020;-66
2024/03/30 01:49:06;;;;;;;10.23;2.35;;;14.80;74.30;;;;;;5100159;28;20086;-66
2024/03/30 01:51:32;;;;;;;13.30;2.40;;;14.80;91.40;;;;;;5100481;28;20035;-66
2024/03/30 01:54:01;;;;;;;20.83;2.53;;;14.70;91.50;;;;;;5099887;28;20048;-64
2024/03/30 01:56:28;;;;;;;8.60;1.70;;;14.70;74.90;;;;;;5082096;28;20058;-64
2024/03/30 01:58:54;;;;;;;14.63;2.53;;;14.80;91.60;;;;;;5100165;28;20039;-64
2024/03/30 02:01:21;;;;;;;18.88;2.22;;;14.70;75.10;;;;;;5100283;28;20084;-66
2024/03/30 02:03:49;;;;;;;11.25;2.10;;;14.70;91.50;;;;;;5100311;28;20028;-67
2024/03/30 02:06:15;;;;;;;8.88;1.80;;;14.70;74.90;;;;;;5081777;28;20039;-67
2024/03/30 02:08:42;;;;;;;10.73;1.83;;;14.70;74.80;;;;;;5099665;28;20057;-67
2024/03/30 02:11:08;;;;;;;18.23;2.55;;;14.70;91.70;;;;;;5099821;28;20099;-67
2024/03/30 02:13:34;;;;;;;10.95;1.63;;;14.70;91.60;;;;;;5110356;28;20027;-67
2024/03/30 02:16:00;;;;;;;20.13;2.45;;;14.80;91.50;;;;;;5104253;28;20062;-66
2024/03/30 02:18:26;;;;;;;15.98;2.20;;;14.80;74.70;;;;;;5100431;28;20371;-66
2024/03/30 02:20:51;;;;;;;12.10;2.22;;;14.80;74.60;;;;;;5064872;28;20440;-66
2024/03/30 02:23:17;;;;;;;8.55;2.63;;;14.80;74.60;;;;;;5105378;28;20031;-66
2024/03/30 02:25:43;;;;;;;12.90;2.67;;;14.70;74.70;;;;;;5102135;28;20206;-67
2024/03/30 02:28:08;;;;;;;10.98;2.00;;;14.80;92.90;;;;;;5099845;28;20020;-67
2024/03/30 02:30:34;;;;;;;13.40;2.55;;;14.70;74.70;;;;;;5091208;28;20032;-69
2024/03/30 02:33:00;;;;;;;19.77;2.35;;;14.60;91.90;;;;;;5099240;28;20088;-67
2024/03/30 02:35:27;;;;;;;15.32;2.30;;;14.70;91.40;;;;;;5099908;28;20350;-67
2024/03/30 02:37:54;;;;;;;14.48;2.25;;;14.60;91.30;;;;;;5098473;28;20374;-66
2024/03/30 02:40:22;;;;;;;15.30;1.65;;;14.70;91.30;;;;;;5099383;28;20027;-66
2024/03/30 02:42:48;;;;;;;15.27;1.90;;;14.80;91.10;;;;;;5099252;28;20085;-66
2024/03/30 02:45:15;;;;;;;15.15;2.13;;;14.70;91.00;;;;;;5100401;28;20032;-66
2024/03/30 02:47:41;;;;;;;13.65;1.80;;;14.70;74.10;;;;;;5102062;28;20097;-66
2024/03/30 02:50:07;;;;;;;17.08;3.30;;;;;;;;;;5099438;28;20318;-67
2024/03/30 02:52:33;;;;;;;14.13;2.30;;;;;;;;;;5099823;28;20043;-67
2024/03/30 02:54:58;;;;;;;11.63;2.83;;;14.90;90.70;;;;;;5100753;28;20028;-67
2024/03/30 02:57:24;;;;;;;11.52;2.33;;;14.90;90.80;;;;;;5085270;28;20023;-65
2024/03/30 02:59:50;;;;;;;14.73;1.95;;;14.70;90.30;;;;;;5103410;28;20036;-65
2024/03/30 03:02:16;;;;;;;11.13;2.45;;;14.70;90.80;;;;;;5103294;28;20031;-69
2024/03/30 03:04:41;;;;;;;10.60;3.70;;;14.90;90.30;;;;;;5103173;28;20031;-67
2024/03/30 03:07:07;;;;;;;11.55;1.60;;;15.00;90.10;;;;;;5103438;28;20032;-66
2024/03/30 03:09:35;;;;;;;11.02;2.45;;;14.80;89.80;;;;;;5085654;28;20291;-66
2024/03/30 03:12:04;;;;;;;13.88;2.30;;;15.00;90.10;;;;;;5102990;28;20048;-67
2024/03/30 03:14:29;;;;;;;;;;;14.80;72.50;;;;;;5103653;28;20028;-66
2024/03/30 03:16:55;;;;;;;10.38;2.47;;;14.80;72.60;;;;;;5102818;28;19969;-66
2024/03/30 03:19:21;;;;;;;12.43;1.92;;;14.80;90.00;;;;;;5102985;28;20095;-66
2024/03/30 03:21:46;;;;;;;14.32;2.42;;;14.90;89.80;;;;;;5102848;28;20125;-66
2024/03/30 03:24:13;;;;;;;8.98;1.80;;;14.90;89.40;;;;;;5102913;28;20091;-65
2024/03/30 03:26:39;;;;;;;11.77;2.08;;;14.90;89.20;;;;;;5103362;28;20039;-66
2024/03/30 03:29:05;;;;;;;16.60;2.55;;;14.90;89.40;;;;;;5102872;28;20032;-67
2024/03/30 03:31:30;;;;;;;9.93;2.40;;;15.00;89.30;;;;;;5102755;28;20047;-66
2024/03/30 03:33:56;;;;;;;11.18;2.03;;;14.90;89.00;;;;;;5102743;28;20036;-66
2024/03/30 03:36:22;;;;;;;10.65;2.45;;;14.60;89.60;;;;;;5102963;28;20039;-66
2024/03/30 03:38:48;;;;;;;20.70;3.17;;;14.90;71.30;;;;;;5102808;28;20036;-67
2024/03/30 03:41:13;;;;;;;11.10;2.08;;;15.00;86.70;;;;;;5102809;28;20048;-66
2024/03/30 03:43:41;;;;;;;14.13;2.05;;;;;;;;;;5105232;28;20045;-66
2024/03/30 03:46:07;;;;;;;12.02;1.92;;;15.20;85.70;;;;;;5102507;28;20024;-66
2024/03/30 03:48:33;;;;;;;19.90;2.35;;;15.00;86.80;;;;;;5102455;28;20059;-66
2024/03/30 03:50:59;;;;;;;10.50;2.05;;;15.10;70.30;;;;;;5102344;28;20690;-66
2024/03/30 03:53:25;;;;;;;11.18;1.77;;;15.00;86.60;;;;;;5102256;28;20097;-66
2024/03/30 03:55:50;;;;;;;7.72;2.00;;;15.10;86.90;;;;;;5102208;28;20336;-66
2024/03/30 03:58:16;;;;;;;7.22;1.80;;;15.10;87.30;;;;;;5102297;28;20036;-66
2024/03/30 04:00:42;;;;;;;16.42;1.92;;;14.90;87.10;;;;;;5072492;28;20036;-67
2024/03/30 04:03:09;;;;;;;17.52;2.65;;;14.90;87.60;;;;;;5102048;28;20031;-67
2024/03/30 04:05:35;;;;;;;10.80;2.38;;;15.00;87.80;;;;;;5101382;28;20055;-67
2024/03/30 04:08:01;;;;;;;11.65;2.22;;;14.80;87.60;;;;;;5101989;28;20019;-67
2024/03/30 04:10:26;;;;;;;11.93;2.45;;;14.90;87.30;;;;;;5101427;28;20035;-67
2024/03/30 04:12:52;;;;;;;13.63;1.88;;;15.20;87.50;;;;;;5101085;28;20347;-66
2024/03/30 04:15:18;;;;;;;10.35;1.80;;;;;;;;;;5101266;28;20028;-66
2024/03/30 04:17:44;;;;;;;9.85;2.05;;;15.00;87.20;;;;;;5101804;28;20036;-66
2024/03/30 04:20:09;;;;;;;10.20;2.00;;;15.00;78.10;;;;;;5108451;28;20035;-66
2024/03/30 04:22:35;;;;;;;10.93;2.22;;;15.00;74.70;;;;;;5109008;28;20036;-66
2024/03/30 04:25:01;;;;;;;10.90;2.00;;;15.00;87.40;;;;;;5083561;28;20138;-66
2024/03/30 04:27:27;;;;;;;10.52;2.03;;;14.80;87.90;;;;;;5101791;28;20027;-65
2024/03/30 04:29:53;;;;;;;23.48;2.28;;;;;;;;;;5101697;28;20040;-65
2024/03/30 04:32:19;;;;;;;10.73;2.05;;;15.00;87.30;;;;;;5101932;28;20039;-66
2024/03/30 04:34:45;;;;;;;15.10;2.15;;;15.00;87.40;;;;;;5083943;28;20028;-65
2024/03/30 04:37:11;;;;;;;8.20;2.33;;;15.00;87.60;;;;;;5085796;28;20039;-65
2024/03/30 04:39:37;;;;;;;8.48;1.90;;;15.00;88.80;;;;;;5101673;28;20024;-65
2024/03/30 04:42:03;;;;;;;9.63;2.10;;;15.00;71.20;;;;;;5101484;28;20043;-66
2024/03/30 04:44:29;;;;;;;9.70;1.70;;;14.90;89.10;;;;;;5068275;28;20348;-67
2024/03/30 04:46:54;;;;;;;10.45;1.90;;;15.00;71.10;;;;;;5102198;28;20089;-66
2024/03/30 04:49:20;;;;;;;14.90;2.67;;;15.00;89.60;;;;;;5101273;28;20316;-66
2024/03/30 04:51:46;;;;;;;10.77;1.98;;;15.20;89.40;;;;;;5101989;28;20036;-66
2024/03/30 04:54:11;;;;;;;13.43;2.35;;;15.20;89.00;;;;;;5101009;28;20048;-66
2024/03/30 04:56:37;;;;;;;12.70;3.05;;;15.10;89.30;;;;;;5101287;28;20085;-67
2024/03/30 04:59:03;;;;;;;22.17;2.67;;;15.30;89.20;;;;;;5101116;28;20054;-67
2024/03/30 05:01:29;;;;;;;10.93;1.75;;;15.30;89.20;;;;;;5101037;28;20507;-67
2024/03/30 05:03:54;;;;;;;14.02;2.40;;;15.80;71.60;;;;;;5100980;28;20044;-66
2024/03/30 05:06:20;;;;;;;13.90;3.40;;;15.10;71.10;;;;;;5106588;28;20242;-66
2024/03/30 05:08:46;;;;;;;10.93;1.83;;;15.10;71.20;;;;;;5103921;28;20043;-66
2024/03/30 05:11:11;;;;;;;9.98;1.65;;;15.20;90.00;;;;;;5100933;28;20261;-67
2024/03/30 05:13:37;;;;;;;6.90;1.95;;;15.30;89.90;;;;;;5100754;28;20030;-65
2024/03/30 05:16:03;;;;;;;7.20;1.50;;;15.10;71.40;;;;;;5099204;28;20073;-65
2024/03/30 05:18:30;;;;;;;8.27;1.63;;;15.20;71.60;;;;;;5100113;28;20131;-65
2024/03/30 05:21:01;;;;;;;20.17;2.72;;;15.30;87.50;;;;;;5100601;28;20039;-65
2024/03/30 05:23:31;;;;;;;6.88;2.20;;;15.30;86.90;;;;;;5082558;28;20028;-65
2024/03/30 05:25:58;;;;;;;12.95;1.90;;;15.10;76.30;;;;;;5101173;28;20103;-65
2024/03/30 05:28:28;;;;;;;10.50;2.05;;;15.20;71.00;;;;;;5100600;28;20167;-66
2024/03/30 05:30:55;;;;;;;11.13;2.05;;;15.30;87.10;;;;;;5100341;28;20031;-66
2024/03/30 05:33:23;;;;;;;8.02;1.65;;;15.20;71.00;;;;;;5100820;28;20111;-66
2024/03/30 05:35:50;;;;;;;10.10;1.60;;;15.60;78.00;;;;;;5100611;28;20043;-65
2024/03/30 05:38:16;;;;;;;10.85;2.15;;;15.40;89.10;;;;;;5100443;28;20034;-66
2024/03/30 05:40:42;;;;;;;11.48;1.83;;;15.50;88.20;;;;;;5100254;28;20027;-65
2024/03/30 05:43:08;;;;;;;13.00;2.42;;;15.40;86.40;;;;;;5100718;28;20051;-66
2024/03/30 05:45:36;;;;;;;7.82;2.03;;;15.50;88.10;;;;;;5100068;28;20089;-66
2024/03/30 05:48:02;;;;;;;5.40;1.70;;;15.50;70.90;;;;;;5100149;28;20047;-66
2024/03/30 05:50:29;;;;;;;16.40;2.00;;;15.50;70.70;;;;;;5100138;28;20032;-66
2024/03/30 05:52:55;;;;;;;14.07;2.40;;;15.60;70.60;;;;;;5065171;28;20067;-65
2024/03/30 05:55:20;;;;;;;12.85;2.25;;;15.60;70.40;;;;;;5100139;28;20027;-65
2024/03/30 05:57:47;;;;;;;12.82;1.83;;;15.60;70.10;;;;;;5100146;28;20042;-65
2024/03/30 06:00:15;;;;;;;12.85;2.42;;;15.70;70.00;;;;;;5100719;28;20221;-66
2024/03/30 06:02:42;;;;;;;14.85;2.38;;;15.70;69.70;;;;;;5099825;28;20036;-66
2024/03/30 06:05:08;;;;;;;11.50;2.40;;;15.80;69.60;;;;;;5100164;28;20107;-66
2024/03/30 06:07:35;;;;;;;11.68;2.70;;;15.80;69.40;;;;;;5085788;28;20036;-66
2024/03/30 06:10:02;;;;;;;13.70;2.05;;;16.20;85.90;;;;;;5081487;28;20229;-66
2024/03/30 06:12:29;;;;;;;9.70;2.00;;;15.90;85.80;;;;;;5099811;28;20059;-66
2024/03/30 06:14:54;;;;;;;13.05;2.22;;;15.90;83.50;;;;;;5101435;28;20028;-67
2024/03/30 06:17:20;;;;;;;12.50;1.85;;;16.20;83.50;;;;;;5109712;28;20095;-67
2024/03/30 06:19:46;;;;;;;8.32;1.88;;;16.10;85.90;;;;;;5106133;28;20130;-66
2024/03/30 06:22:11;;;;;;;16.98;2.95;;;16.20;85.50;;;;;;5103716;28;20166;-66
2024/03/30 06:24:38;;;;;;;16.27;2.00;;;16.20;68.40;;;;;;5103201;28;20032;-66
2024/03/30 06:27:08;;;;;;;17.38;3.17;;;16.30;68.20;;;;;;5106684;28;20048;-65
2024/03/30 06:29:35;;;;;;;12.65;2.10;;;16.40;67.90;;;;;;5099132;28;20023;-66
2024/03/30 06:32:01;;;;;;;12.02;2.10;;;16.50;67.60;;;;;;5099349;28;20036;-66
2024/03/30 06:34:27;;;;;;;11.60;2.13;;;16.70;84.20;;;;;;5100136;28;20028;-67
2024/03/30 06:36:53;;;;;;;8.73;2.08;;;16.80;82.70;;;;;;5099488;28;20040;-66
2024/03/30 06:39:19;;;;;;;11.38;2.08;;;16.80;82.20;;;;;;5104813;28;20062;-66
2024/03/30 06:44:30;;;;;;;12.10;2.40;;;17.10;84.50;;;;;;5099417;28;20073;-67
2024/03/30 06:46:55;;;;;;;15.68;2.42;;;17.10;66.30;;;;;;5099154;28;20031;-66
2024/03/30 06:49:22;;;;;;;13.18;2.30;;;17.30;66.00;;;;;;5099351;28;20328;-67
2024/03/30 06:51:48;;;;;;;5.97;1.48;;;17.30;65.60;;;;;;5102311;28;20319;-67
2024/03/30 06:54:14;;;;;;;8.55;1.70;;;17.50;81.90;;;;;;5088235;28;20056;-67
2024/03/30 06:56:40;;;;;;;14.18;3.20;;;17.40;64.80;;;;;;5099219;28;20049;-67
2024/03/30 06:59:05;;;;;;;10.82;2.40;;;17.50;64.70;;;;;;5099226;28;20096;-67
2024/03/30 07:01:31;;;;;;;6.38;1.67;;;17.50;64.80;;;;;;5099244;28;20395;-67
2024/03/30 07:03:58;;;;;;;10.18;2.53;;;17.50;64.80;;;;;;5105355;28;20040;-67
2024/03/30 07:06:24;;;;;;;13.70;1.98;;;17.60;64.60;;;;;;5089045;28;20038;-67
2024/03/30 07:08:52;;;;;;;14.15;2.15;;;17.60;64.30;;;;;;5101458;28;20079;-67
2024/03/30 07:11:21;;;;;;;12.80;2.15;;;17.70;64.30;;;;;;5099453;28;20042;-67
2024/03/30 07:13:47;;;;;;;10.77;2.58;;;17.70;64.00;;;;;;5101626;28;20040;-67
2024/03/30 07:16:13;;;;;;;11.07;2.10;;;17.70;63.90;;;;;;5104397;28;20390;-69
2024/03/30 07:18:39;;;;;;;12.18;1.92;;;17.80;63.70;;;;;;5099054;28;20315;-68
2024/03/30 07:21:05;;;;;;;17.00;3.05;;;17.90;63.40;;;;;;5107587;28;20027;-68
2024/03/30 07:23:31;;;;;;;11.52;2.15;;;18.00;63.20;;;;;;5101543;28;20074;-68
2024/03/30 07:26:03;;;;;;;19.17;2.40;;;18.30;80.20;;;;;;5104480;28;20031;-69
2024/03/30 07:28:28;;;;;;;18.90;2.83;;;18.20;62.10;;;;;;5098972;28;20076;-69
2024/03/30 07:31:05;;;;;;;8.18;1.98;;;18.30;61.90;;;;;;5098672;28;20209;-69
2024/03/30 07:33:31;;;;;;;11.40;2.90;;;18.40;76.50;;;;;;5098954;28;20036;-67
2024/03/30 07:35:57;;;;;;;16.23;2.97;;;18.50;61.10;;;;;;5098863;28;20103;-67
2024/03/30 07:38:27;;;;;;;25.70;4.32;;;18.60;60.80;;;;;;5098902;28;20036;-67
2024/03/30 07:40:53;;;;;;;12.20;1.92;;;18.70;60.80;;;;;;5099827;28;20201;-67
2024/03/30 07:43:19;;;;;;;7.25;2.35;;;19.00;77.40;;;;;;5103153;28;20036;-68
2024/03/30 07:45:45;;;;;;;14.32;2.40;;;19.00;60.10;;;;;;5102462;28;20032;-68
2024/03/30 07:48:11;;;;;;;17.70;2.13;;;19.10;59.70;;;;;;5102578;28;20087;-68
2024/03/30 07:50:38;;;;;;;9.60;2.22;;;19.30;59.40;;;;;;5102555;28;20100;-68
2024/03/30 07:53:04;;;;;;;11.80;2.50;;;19.30;58.90;;;;;;5090437;28;20057;-69
2024/03/30 07:55:31;;;;;;;14.55;2.55;;;19.40;58.20;;;;;;5080823;28;20059;-69
2024/03/30 07:57:56;;;;;;;12.15;2.03;;;19.50;58.10;;;;;;5085388;28;20074;-68
2024/03/30 08:00:25;;;;;;;13.75;2.95;;;19.50;58.00;;;;;;5092748;28;20028;-69
2024/03/30 08:02:59;;;;;;;16.73;2.30;;;19.60;58.10;;;;;;5081539;28;20386;-69
2024/03/30 08:05:24;;;;;;;14.02;2.38;;;19.70;58.20;;;;;;5086740;28;20025;-68
2024/03/30 08:07:50;;;;;;;17.98;2.78;;;19.70;57.90;;;;;;5083599;28;20098;-69
2024/03/30 08:10:16;;;;;;;19.77;3.20;;;19.80;57.30;;;;;;5070159;28;20197;-68
2024/03/30 08:12:42;;;;;;;25.58;3.47;;;19.90;57.10;;;;;;5081343;28;20048;-69
2024/03/30 08:15:07;;;;;;;15.60;2.88;;;20.10;57.00;;;;;;5081492;28;20039;-65
2024/03/30 08:17:33;;;;;;;10.88;2.40;;;20.20;56.80;;;;;;5084449;28;20059;-65
2024/03/30 08:19:59;;;;;;;10.02;2.45;;;20.30;56.80;;;;;;5081215;28;20043;-66
2024/03/30 08:22:24;;;;;;;14.75;3.08;;;20.30;56.60;;;;;;5081634;28;20032;-63
2024/03/30 08:24:50;;;;;;;11.73;2.50;;;20.40;56.90;;;;;;5084410;28;20233;-63
2024/03/30 08:27:16;;;;;;;12.95;2.60;;;20.50;56.80;;;;;;5087962;28;20028;-64
2024/03/30 08:29:42;;;;;;;21.60;3.60;;;20.50;56.80;;;;;;5080965;28;20217;-64
2024/03/30 08:32:07;;;;;;;21.38;4.53;;;20.60;56.20;;;;;;5081333;28;20028;-63
2024/03/30 08:34:33;;;;;;;12.35;2.15;;;20.70;55.80;;;;;;5081859;28;20038;-63
2024/03/30 08:36:59;;;;;;;14.50;2.47;;;20.80;55.60;;;;;;5081063;28;20348;-63
2024/03/30 08:39:24;;;;;;;21.83;3.05;;;20.90;70.30;;;;;;5081037;28;20028;-64
2024/03/30 08:41:50;;;;;;;20.10;3.10;;;20.90;55.00;;;;;;5082378;28;20099;-64
2024/03/30 08:44:17;;;;;;;21.65;2.50;;;20.70;54.60;;;;;;5080988;28;20028;-64
2024/03/30 08:46:43;;;;;;;16.15;2.60;;;20.60;55.20;;;;;;5081062;28;20127;-64
2024/03/30 08:49:09;;;;;;;17.30;3.42;;;20.50;55.60;;;;;;5080713;28;20028;-64
2024/03/30 08:51:35;;;;;;;15.90;3.53;;;20.50;55.50;;;;;;5086254;28;20074;-64
2024/03/30 08:54:02;;;;;;;22.45;2.85;;;20.90;54.60;;;;;;5079965;28;20052;-66
2024/03/30 08:56:29;;;;;;;14.27;2.50;;;20.90;55.00;;;;;;5080415;28;20040;-67
2024/03/30 08:58:55;;;;;;;14.68;3.60;;;21.20;54.70;;;;;;5083095;28;20036;-65
2024/03/30 09:01:21;;;;;;;18.70;4.22;;;21.40;54.80;;;;;;5080682;28;20320;-64
2024/03/30 09:03:47;;;;;;;13.30;2.83;;;21.60;54.50;;;;;;5064602;28;20081;-64
2024/03/30 09:06:14;;;;;;;13.20;2.42;;;21.50;54.50;;;;;;5068011;28;20258;-64
2024/03/30 09:08:40;;;;;;;13.80;2.95;;;21.40;69.30;;;;;;5081354;28;20108;-64
2024/03/30 09:11:06;;;;;;;14.65;2.17;;;21.40;54.50;;;;;;5083199;28;20032;-64
2024/03/30 09:13:31;;;;;;;9.93;2.45;;;21.50;54.10;;;;;;5062658;28;20107;-64
2024/03/30 09:15:57;;;;;;;15.65;4.32;;;21.90;53.70;;;;;;5082061;28;20402;-64
2024/03/30 09:18:27;;;;;;;23.40;4.97;;;21.90;53.90;;;;;;5080387;28;20029;-66
2024/03/30 09:20:53;;;;;;;22.27;4.38;;;22.20;53.70;;;;;;5081632;28;20029;-65
2024/03/30 09:23:18;;;;;;;21.80;4.65;;;22.40;53.70;;;;;;5080488;28;20028;-65
2024/03/30 09:25:44;;;;;;;18.77;4.25;;;22.60;53.50;;;;;;5050733;28;20051;-65
2024/03/30 09:28:10;;;;;;;15.60;3.05;;;22.70;52.50;;;;;;5080423;28;20040;-66
2024/03/30 09:30:35;;;;;;;11.95;3.03;;;22.80;52.20;;;;;;5080453;28;20419;-65
2024/03/30 09:33:01;;;;;;;12.07;2.55;;;22.70;50.60;;;;;;5062249;28;20242;-65
2024/03/30 09:35:27;;;;;;;11.95;2.88;;;22.60;51.40;;;;;;5064233;28;20031;-65
2024/03/30 09:37:53;;;;;;;11.27;1.98;;;22.50;51.40;;;;;;5081231;28;20047;-65
2024/03/30 09:40:19;;;;;;;17.45;3.13;;;22.40;50.90;;;;;;5080286;28;20032;-65
2024/03/30 09:42:47;;;;;;;13.10;3.88;;;22.60;50.60;;;;;;5081012;28;20024;-65
2024/03/30 09:45:13;;;;;;;17.20;2.55;;;22.60;51.10;;;;;;5080473;28;20024;-70
2024/03/30 09:47:41;;;;;;;13.18;2.45;;;22.70;51.10;;;;;;5079574;28;20028;-70
2024/03/30 09:50:10;;;;;;;17.37;3.17;;;22.70;51.10;;;;;;5080993;28;20032;-66
2024/03/30 09:52:40;;;;;;;27.65;4.05;;;22.70;63.70;;;;;;5081363;28;20051;-66
2024/03/30 09:55:11;;;;;;;25.48;3.45;;;22.60;50.10;;;;;;5100190;28;20059;-66
2024/03/30 09:57:46;;;;;;;21.33;3.53;;;22.70;50.80;;;;;;5100333;28;20046;-67
2024/03/30 10:00:13;;;;;;;11.98;2.83;;;22.90;50.30;;;;;;5099891;28;20558;-67
2024/03/30 10:02:40;;;;;;;;;;;23.20;49.40;;;;;;5082172;28;20269;-65
2024/03/30 10:05:15;;;;;;;18.50;4.03;;;23.30;47.60;;;;;;5099383;28;19923;-66
2024/03/30 10:08:14;;;;;;;20.95;4.32;;;23.50;47.90;;;;;;5099671;28;20039;-65
2024/03/30 10:10:42;;;;;;;11.45;1.85;;;23.60;47.70;;;;;;5099703;28;20042;-67
2024/03/30 10:13:19;;;;;;;22.05;3.88;;;24.00;58.40;;;;;;5099693;28;20032;-67
2024/03/30 10:15:48;;;;;;;28.47;2.93;;;23.90;47.10;;;;;;5099873;28;20043;-67
2024/03/30 10:18:14;;;;;;;21.50;5.63;;;23.80;46.60;;;;;;5099511;28;20073;-67
2024/03/30 10:20:40;;;;;;;20.90;4.75;;;23.90;58.10;;;;;;5106388;28;20023;-67
2024/03/30 10:23:06;;;;;;;22.10;3.28;;;23.60;45.10;;;;;;5105465;28;20030;-67
2024/03/30 10:25:34;;;;;;;14.32;2.83;;;23.60;57.80;;;;;;5099714;28;20063;-69
2024/03/30 10:28:00;;;;;;;18.45;3.17;;;23.90;59.10;;;;;;5099876;28;20320;-67
2024/03/30 10:30:26;;;;;;;28.77;4.90;;;23.80;46.10;;;;;;5099835;28;20047;-67
2024/03/30 10:32:54;;;;;;;18.63;3.50;;;24.30;57.00;;;;;;5098577;28;20503;-67
2024/03/30 10:35:21;;;;;;;16.48;3.88;;;24.30;56.30;;;;;;5099212;28;20036;-67
2024/03/30 10:37:51;;;;;;;19.88;3.05;;;24.30;56.10;;;;;;5098504;28;20039;-67
2024/03/30 10:40:17;;;;;;;19.88;2.75;;;24.30;45.10;;;;;;5099357;28;20024;-66
2024/03/30 10:42:43;;;;;;;22.92;5.32;;;24.10;52.80;;;;;;5099451;28;20063;-66
2024/03/30 10:45:09;;;;;;;22.17;3.10;;;24.20;56.30;;;;;;5103302;28;20339;-67
2024/03/30 10:47:37;;;;;;;19.27;3.88;;;24.20;45.10;;;;;;5103106;28;20036;-67
2024/03/30 10:50:03;;;;;;;18.48;3.55;;;24.30;44.70;;;;;;5094411;28;20056;-67
2024/03/30 10:52:29;;;;;;;29.42;3.60;;;24.10;55.40;;;;;;5065403;28;20035;-67
2024/03/30 10:54:57;;;;;;;17.15;3.58;;;24.20;44.50;;;;;;5096775;28;20060;-66
2024/03/30 10:57:23;;;;;;;21.05;3.28;;;24.20;44.00;;;;;;5101740;28;20328;-66
2024/03/30 10:59:49;;;;;;;8.65;2.13;;;23.80;55.60;;;;;;5099001;28;20047;-66
2024/03/30 11:02:19;;;;;;;20.42;3.47;;;23.80;56.00;;;;;;5098962;28;20209;-67
2024/03/30 11:04:45;;;;;;;13.55;2.55;;;23.80;45.00;;;;;;5098995;28;20028;-72
2024/03/30 11:07:13;;;;;;;30.48;4.50;;;23.80;44.10;;;;;;5099494;28;20020;-67
2024/03/30 11:09:41;;;;;;;19.55;2.67;;;23.90;55.40;;;;;;5098756;28;20043;-67
2024/03/30 11:12:17;;;;;;;17.63;3.35;;;24.00;55.90;;;;;;5099301;28;20032;-68
2024/03/30 11:14:43;;;;;;;31.73;3.38;;;24.30;44.90;;;;;;5099210;28;20279;-66
2024/03/30 11:17:27;;;;;;;19.17;3.28;;;24.40;44.70;;;;;;5102247;28;20323;-67
2024/03/30 11:20:08;;;;;;;22.02;3.15;;;24.70;54.00;;;;;;5102885;28;20036;-67
2024/03/30 11:23:07;;;;;;;27.35;4.80;;;24.80;44.50;;;;;;5103732;28;20246;-68
2024/03/30 11:25:36;;;;;;;19.35;3.78;;;25.00;44.30;;;;;;5102902;28;20043;-67
2024/03/30 11:28:22;;;;;;;21.83;3.75;;;25.30;43.30;;;;;;5102696;28;20024;-67
2024/03/30 11:30:54;;;;;;;21.35;3.33;;;25.40;42.80;;;;;;5102649;28;20040;-66
2024/03/30 11:33:30;;;;;;;26.40;5.28;;;25.40;42.80;;;;;;5102675;28;20024;-67
2024/03/30 11:36:17;;;;;;;14.75;3.00;;;25.20;53.70;;;;;;5102731;28;20032;-67
2024/03/30 11:38:49;;;;;;;27.35;3.60;;;25.40;43.50;;;;;;5102571;28;20060;-67
2024/03/30 11:41:16;;;;;;;20.63;3.30;;;25.30;53.20;;;;;;5103557;28;20050;-67
2024/03/30 11:43:50;;;;;;;18.98;3.75;;;25.30;43.10;;;;;;5102316;28;20024;-67
2024/03/30 11:46:17;;;;;;;20.23;4.60;;;25.30;53.40;;;;;;5102481;28;20072;-67
2024/03/30 11:48:44;;;;;;;20.35;3.38;;;25.30;44.00;;;;;;5102227;28;20062;-67
2024/03/30 11:51:20;;;;;;;23.42;3.55;;;25.20;53.60;;;;;;5102341;28;20359;-67
2024/03/30 11:53:46;;;;;;;25.80;4.00;;;25.50;53.20;;;;;;5101672;28;20079;-67
2024/03/30 11:56:12;;;;;;;21.00;3.30;;;25.20;43.70;;;;;;5102171;28;20031;-67
2024/03/30 11:58:44;;;;;;;17.35;3.78;;;25.30;53.50;;;;;;5069859;28;20025;-67
2024/03/30 12:01:12;;;;;;;23.17;4.35;;;25.30;48.90;;;;;;5102211;28;20035;-66
2024/03/30 12:03:40;;;;;;;12.27;2.83;;;25.40;43.30;;;;;;5102297;28;20028;-69
2024/03/30 12:06:05;;;;;;;27.38;4.32;;;25.70;52.40;;;;;;5094421;28;20574;-67
2024/03/30 12:08:32;;;;;;;18.83;2.88;;;25.60;52.20;;;;;;5103755;28;20039;-67
2024/03/30 12:11:04;;;;;;;16.30;3.35;;;25.70;43.70;;;;;;5101992;28;20036;-67
2024/03/30 12:13:39;;;;;;;17.30;3.05;;;25.80;43.60;;;;;;5104007;28;20071;-67
2024/03/30 12:16:06;;;;;;;20.60;5.07;;;26.10;50.90;;;;;;5071802;28;20255;-67
2024/03/30 12:18:32;;;;;;;25.88;3.83;;;26.10;50.80;;;;;;5097245;28;20046;-67
2024/03/30 12:20:58;;;;;;;16.27;3.50;;;25.90;50.10;;;;;;5101410;28;20032;-67
2024/03/30 12:23:24;;;;;;;31.73;3.90;;;26.10;49.50;;;;;;5101758;28;20275;-67
2024/03/30 12:25:51;;;;;;;18.40;3.60;;;26.20;49.10;;;;;;5101114;28;20043;-67
2024/03/30 12:28:18;;;;;;;27.20;4.18;;;26.20;48.60;;;;;;5100045;28;20032;-67
2024/03/30 12:30:45;;;;;;;29.77;4.75;;;26.20;48.30;;;;;;5100683;28;20207;-67
2024/03/30 12:33:12;;;;;;;33.75;4.53;;;25.90;48.00;;;;;;5100920;28;20363;-67
2024/03/30 12:35:39;;;;;;;42.22;5.65;;;26.30;48.20;;;;;;5100999;28;20067;-67
2024/03/30 12:38:05;;;;;;;25.67;4.53;;;26.20;40.30;;;;;;5082964;28;20254;-68
2024/03/30 12:40:32;;;;;;;20.73;3.92;;;26.40;49.10;;;;;;5101484;28;20124;-68
2024/03/30 12:42:59;;;;;;;32.90;5.30;;;;;;;;;;5066299;28;20038;-67